Impacts TAF Board INFO
FOR SITUATIONAL AWARENESS. NOT TO BE USED FOR FLIGHT PLANNING PURPOSES.
IDs:

KSTL - St Louis/Lambert Int, MO, US

Issued at 1120 UTC 19 Jun 2018
Updated at 1237 UTC 19 Jun 2018
Potential Impact None Slight Moderate High
Time1151Z 19/13Z 19/14Z 19/15Z 19/16Z 19/17Z 19/18Z 19/19Z 19/20Z 19/21Z 19/22Z 19/23Z 20/00Z 20/01Z>>
Type OBS PRVL PRVL PRVL PRVL PRVL PRVL PRVL PRVL PRVL PRVL PRVL PRVL PRVL
VIS 10 >6 >6 >6 >6 >6 >6 >6 >6 >6 >6 >6 >6 >6
CIG -- -- -- -- -- -- -- 50 50 50 50 120 120 120
Cover FEW SCT SCT SCT SCT SCT SCT BKN BKN BKN BKN BKN BKN BKN
FltCat VFR VFR VFR VFR VFR VFR VFR VFR VFR VFR VFR VFR VFR VFR
WX -- -- -- -- -- -- -- VCTS VCTS VCTS VCTS -- -- --
WDir 240 240 240 240 240 240 240 250 250 250 250 230 230 230
WSpd 11 9 9 9 9 9 9 9 9 9 9 7 7 7
WGst 20 -- -- -- -- -- -- -- -- -- -- -- -- --

Raw TAF
KSTL 191120Z 1912/2018 24009KT P6SM SCT050
  FM191900 25009KT P6SM VCTS BKN050CB
  FM192300 23007KT P6SM BKN120
  FM201500 26009KT P6SM BKN040


Raw METAR
KSTL 191151Z 24011G20KT 10SM FEW100 27/21 A3001 RMK AO2 SLP148 T02670206 10283 20261 51010
KSTL 191051Z 24010KT 10SM FEW100 26/21 A3000 RMK AO2 SLP142 ACC NE T02610206
KSTL 190951Z 23008KT 10SM SCT250 26/21 A3000 RMK AO2 SLP142 T02610206

METAR Board
Radar Display
Forecast Discussion

FOR SITUATIONAL AWARENESS. NOT TO BE USED FOR FLIGHT PLANNING PURPOSES.